createdAt,value
2023-03-23T15:59:32.123Z,4.15
2023-03-23T16:03:03.172Z,5.05
2023-03-23T16:06:29.784Z,6.53
2023-03-23T16:09:51.565Z,3.63
2023-03-23T16:13:13.246Z,5.60
2023-03-23T16:16:38.142Z,6.90
2023-03-23T16:19:59.809Z,4.95
2023-03-23T16:23:21.404Z,5.43
2023-03-23T16:26:43.028Z,6.18
2023-03-23T16:30:15.399Z,5.60
2023-03-23T16:33:37.386Z,6.13
2023-03-23T16:37:01.633Z,3.03
2023-03-23T16:40:24.095Z,4.68
2023-03-23T16:43:48.249Z,9.10
2023-03-23T16:47:09.861Z,9.18
2023-03-23T16:50:35.527Z,3.90
2023-03-23T16:53:59.175Z,7.90
2023-03-23T16:57:20.976Z,5.90
2023-03-23T17:00:42.964Z,5.35
2023-03-23T17:04:06.363Z,5.45
2023-03-23T17:07:32.993Z,11.50
2023-03-23T17:10:54.660Z,4.35
2023-03-23T17:14:16.341Z,5.53
2023-03-23T17:17:40.550Z,4.82
2023-03-23T17:21:02.178Z,3.45
2023-03-23T17:24:29.175Z,5.30
2023-03-23T17:27:53.222Z,4.47
2023-03-23T17:31:17.333Z,5.20
2023-03-23T17:34:41.766Z,2.83
2023-03-23T17:38:05.738Z,8.10
2023-03-23T17:41:27.367Z,5.80
2023-03-23T17:44:51.499Z,8.63
2023-03-23T17:48:15.295Z,4.07
2023-03-23T17:51:37.029Z,6.88
2023-03-23T17:54:58.842Z,10.90
2023-03-23T17:58:23.018Z,7.50
2023-03-23T18:01:48.956Z,8.23
2023-03-23T18:05:10.997Z,9.52
2023-03-23T18:08:32.812Z,8.80
2023-03-23T18:11:56.698Z,12.10
2023-03-23T18:15:20.622Z,9.05
2023-03-23T18:18:42.297Z,7.85
2023-03-23T18:22:06.413Z,9.23
2023-03-23T18:25:28.037Z,11.02
2023-03-23T18:28:53.399Z,11.00
2023-03-23T18:32:17.225Z,16.48
2023-03-23T18:35:38.762Z,13.73
2023-03-23T18:39:00.683Z,17.70
2023-03-23T18:42:24.762Z,25.02
2023-03-23T18:45:54.784Z,20.77
2023-03-23T18:49:18.596Z,24.42
2023-03-23T18:52:42.423Z,14.77
2023-03-23T18:56:10.272Z,17.15
2023-03-23T18:59:33.908Z,42.83
2023-03-23T19:02:57.989Z,22.42
2023-03-23T19:06:27.083Z,21.13
2023-03-23T19:09:48.754Z,15.80
2023-03-23T19:13:11.361Z,20.30
2023-03-23T19:16:35.967Z,18.70
2023-03-23T19:23:20.801Z,12.82
2023-03-23T19:26:46.977Z,17.55
2023-03-23T19:30:09.650Z,12.43
2023-03-23T19:33:31.241Z,16.40
2023-03-23T19:37:04.208Z,12.70
2023-03-23T19:43:52.247Z,27.30
2023-03-23T19:47:14.646Z,15.23
2023-03-23T19:50:38.609Z,14.90
2023-03-23T19:54:00.701Z,21.25
2023-03-23T19:57:25.372Z,19.67
2023-03-23T20:00:49.452Z,16.08
2023-03-23T20:04:15.267Z,12.02
2023-03-23T20:07:44.521Z,24.50
2023-03-23T20:11:12.531Z,29.27
2023-03-23T20:14:34.991Z,22.75
2023-03-23T20:17:58.037Z,18.70
2023-03-23T20:21:22.576Z,20.42
2023-03-23T20:24:47.261Z,19.63
2023-03-23T20:28:08.985Z,17.92
2023-03-23T20:31:36.754Z,17.25
2023-03-23T20:35:06.458Z,19.00
2023-03-23T20:38:30.564Z,14.68
2023-03-23T20:41:54.816Z,19.23
2023-03-23T20:45:16.568Z,20.30
2023-03-23T20:48:40.212Z,14.48
2023-03-23T20:52:02.172Z,26.55
2023-03-23T20:55:26.266Z,13.60
2023-03-23T20:58:48.066Z,11.95
2023-03-23T21:02:15.286Z,16.13
2023-03-23T21:05:39.981Z,18.15
2023-03-23T21:09:01.678Z,19.38
2023-03-23T21:12:23.311Z,14.02
2023-03-23T21:15:45.398Z,11.85
2023-03-23T21:19:09.649Z,14.85
2023-03-23T21:22:34.957Z,14.82
2023-03-23T21:26:01.760Z,27.15
2023-03-23T21:29:24.320Z,19.13
2023-03-23T21:32:46.122Z,21.05
2023-03-23T21:36:10.815Z,17.98
2023-03-23T21:39:33.622Z,16.52
2023-03-23T21:42:55.332Z,20.05
2023-03-23T21:46:19.936Z,22.25
2023-03-23T21:49:42.042Z,20.20
2023-03-23T21:53:05.695Z,14.93
2023-03-23T21:56:31.297Z,15.63
2023-03-23T21:59:55.548Z,17.40
2023-03-23T22:03:19.177Z,16.50
2023-03-23T22:06:42.372Z,15.95
2023-03-23T22:10:07.793Z,22.20
2023-03-23T22:13:31.165Z,17.67
2023-03-23T22:16:52.824Z,20.48
2023-03-23T22:20:14.644Z,19.90
2023-03-23T22:23:36.920Z,15.90
2023-03-23T22:26:59.583Z,14.32
2023-03-23T22:30:21.288Z,14.73
2023-03-23T22:33:43.266Z,20.80
2023-03-23T22:37:08.381Z,17.55
2023-03-23T22:40:34.193Z,19.15
2023-03-23T22:44:01.083Z,19.73
2023-03-23T22:47:25.008Z,15.80
2023-03-23T22:50:51.683Z,12.88
2023-03-23T22:54:13.412Z,13.93
2023-03-23T22:57:38.271Z,17.05
2023-03-23T23:01:02.587Z,24.35
2023-03-23T23:04:24.492Z,13.93
2023-03-23T23:07:46.147Z,18.52
2023-03-23T23:11:11.226Z,17.10
2023-03-23T23:14:33.507Z,15.80
2023-03-23T23:17:57.439Z,19.45
2023-03-23T23:21:21.999Z,16.35
2023-03-23T23:24:46.415Z,16.60
2023-03-23T23:28:10.354Z,21.88
2023-03-23T23:31:33.716Z,67.97
2023-03-23T23:34:58.351Z,37.70
2023-03-23T23:38:20.125Z,21.25
2023-03-23T23:41:44.212Z,13.95
2023-03-23T23:45:06.709Z,17.30
2023-03-23T23:48:30.752Z,14.15
2023-03-23T23:51:52.689Z,20.08
2023-03-23T23:55:18.118Z,15.57
2023-03-23T23:58:45.012Z,19.25
